Time;durP1;ratioP1;P1;durP2;ratioP2;P2;SDS_P1;SDS_P2;PMS_P1;PMS_P2;Temp;Humidity;BMP_temperature;BMP_pressure;BME280_temperature;BME280_humidity;BME280_pressure;Samples;Min_cycle;Max_cycle;Signal;HPM_P1;HPM_P2
2021/07/02 00:02:23;;;;;;;11.23;1.50;;;19.10;99.90;;;;;;5066423;28;20150;-45
2021/07/02 00:05:02;;;;;;;4.72;2.05;;;19.00;99.90;;;;;;5066321;28;20374;-45
2021/07/02 00:07:40;;;;;;;8.48;2.65;;;18.90;99.90;;;;;;5065815;28;20371;-45
2021/07/02 00:10:18;;;;;;;10.43;2.05;;;18.90;99.90;;;;;;5046305;28;20377;-46
2021/07/02 00:12:56;;;;;;;9.13;1.80;;;18.90;99.90;;;;;;5085717;28;20374;-44
2021/07/02 00:15:34;;;;;;;5.88;1.90;;;18.80;99.90;;;;;;5065210;28;20367;-43
2021/07/02 00:18:12;;;;;;;9.40;1.60;;;18.80;99.90;;;;;;5065946;28;20386;-44
2021/07/02 00:20:50;;;;;;;17.08;1.83;;;18.70;99.90;;;;;;5065370;28;20379;-43
2021/07/02 00:23:28;;;;;;;11.55;2.05;;;18.70;99.90;;;;;;5066861;28;20382;-46
2021/07/02 00:26:06;;;;;;;6.53;1.73;;;18.60;99.90;;;;;;5065570;28;20758;-45
2021/07/02 00:28:43;;;;;;;8.68;1.92;;;18.60;99.90;;;;;;5066646;28;20135;-45
2021/07/02 00:31:22;;;;;;;19.60;2.17;;;18.60;99.90;;;;;;5065116;28;20402;-44
2021/07/02 00:34:00;;;;;;;10.90;1.98;;;18.50;99.90;;;;;;5065945;28;20379;-44
2021/07/02 00:36:38;;;;;;;5.30;1.58;;;18.50;99.90;;;;;;5062948;28;20773;-48
2021/07/02 00:39:16;;;;;;;9.00;1.88;;;18.50;99.90;;;;;;5065362;28;20768;-49
2021/07/02 00:41:54;;;;;;;7.95;2.13;;;18.50;99.90;;;;;;5127737;27;20424;-49
2021/07/02 00:44:47;;;;;;;8.82;1.98;;;18.40;99.90;;;;;;5065415;28;21090;-44
2021/07/02 00:47:26;;;;;;;9.20;2.13;;;18.40;99.90;;;;;;5066346;28;21069;-45
2021/07/02 00:50:06;;;;;;;12.48;2.10;;;18.40;99.90;;;;;;5066597;28;20879;-43
2021/07/02 00:52:43;;;;;;;11.60;2.67;;;18.40;99.90;;;;;;5065711;27;20897;-44
2021/07/02 00:55:21;;;;;;;8.55;2.35;;;18.40;99.90;;;;;;5066712;28;20390;-44
2021/07/02 00:57:59;;;;;;;13.05;2.90;;;18.40;99.90;;;;;;5064885;28;20375;-44
2021/07/02 01:00:39;;;;;;;11.68;2.92;;;18.40;99.90;;;;;;5106464;27;20387;-44
2021/07/02 01:03:17;;;;;;;9.70;2.50;;;18.40;99.90;;;;;;5066438;28;20382;-44
2021/07/02 01:05:56;;;;;;;15.00;2.80;;;18.40;99.90;;;;;;5066151;28;20375;-48
2021/07/02 01:08:35;;;;;;;7.55;2.42;;;18.40;99.90;;;;;;5086942;27;20370;-46
2021/07/02 01:11:13;;;;;;;11.73;2.83;;;18.40;99.90;;;;;;5065228;28;20936;-46
2021/07/02 01:13:52;;;;;;;13.32;3.58;;;18.40;99.90;;;;;;5107203;27;20376;-43
2021/07/02 01:16:30;;;;;;;9.10;2.88;;;18.40;99.90;;;;;;5066125;28;20390;-43
2021/07/02 01:19:10;;;;;;;11.80;3.17;;;18.40;99.90;;;;;;5126924;27;20753;-44
2021/07/02 01:21:48;;;;;;;12.32;2.85;;;18.40;99.90;;;;;;5059650;27;20747;-44
2021/07/02 01:24:29;;;;;;;9.82;2.35;;;18.40;99.90;;;;;;5065438;28;20375;-44
2021/07/02 01:27:08;;;;;;;15.13;3.45;;;18.40;99.90;;;;;;5067194;28;20761;-44
2021/07/02 01:29:47;;;;;;;14.65;2.65;;;18.40;99.90;;;;;;5065911;28;20885;-46
2021/07/02 01:32:26;;;;;;;5.68;2.00;;;18.40;99.90;;;;;;5045247;28;20379;-46
2021/07/02 01:35:05;;;;;;;9.35;2.47;;;18.40;99.90;;;;;;5066686;28;20386;-45
2021/07/02 01:37:45;;;;;;;8.98;2.42;;;18.40;99.90;;;;;;5066448;27;20749;-48
2021/07/02 01:40:23;;;;;;;8.45;2.30;;;18.40;99.90;;;;;;5066569;28;20379;-43
2021/07/02 01:43:04;;;;;;;8.48;2.08;;;18.40;99.90;;;;;;5065494;28;21056;-43
2021/07/02 01:45:45;;;;;;;6.00;1.95;;;18.40;99.90;;;;;;5066584;28;20382;-43
2021/07/02 01:48:23;;;;;;;11.98;2.58;;;18.50;99.90;;;;;;5087013;28;20381;-44
2021/07/02 01:51:03;;;;;;;13.10;3.58;;;18.50;99.90;;;;;;5126339;27;20371;-44
2021/07/02 01:53:41;;;;;;;7.05;2.20;;;18.60;99.90;;;;;;5066665;28;20375;-44
2021/07/02 01:56:19;;;;;;;6.13;2.15;;;18.60;99.90;;;;;;5065373;28;20379;-44
2021/07/02 01:58:59;;;;;;;8.15;2.72;;;18.70;99.90;;;;;;5105863;27;20376;-44
2021/07/02 02:01:41;;;;;;;5.85;2.72;;;18.80;99.90;;;;;;5062473;27;20394;-46
2021/07/02 02:04:23;;;;;;;11.30;2.10;;;18.80;99.90;;;;;;5065415;28;20371;-50
2021/07/02 02:07:03;;;;;;;6.60;2.20;;;18.80;99.90;;;;;;5087224;27;20377;-45
2021/07/02 02:09:41;;;;;;;9.60;2.40;;;18.90;99.90;;;;;;5065820;28;20379;-47
2021/07/02 02:12:19;;;;;;;4.80;1.92;;;19.00;99.90;;;;;;5065736;28;20375;-48
2021/07/02 02:15:01;;;;;;;7.10;2.33;;;19.00;99.90;;;;;;5066070;28;20386;-45
2021/07/02 02:17:42;;;;;;;6.55;1.98;;;19.00;99.90;;;;;;5126463;27;20370;-47
2021/07/02 02:20:19;;;;;;;5.13;1.98;;;19.10;99.90;;;;;;5066536;28;20371;-45
2021/07/02 02:22:59;;;;;;;5.93;1.83;;;19.10;99.90;;;;;;5065163;28;20387;-44
2021/07/02 02:25:37;;;;;;;6.72;1.73;;;19.10;99.90;;;;;;5066280;28;20387;-45
2021/07/02 02:28:15;;;;;;;6.78;2.10;;;19.10;99.90;;;;;;5066395;28;20383;-46
2021/07/02 02:30:53;;;;;;;9.75;2.17;;;19.00;99.90;;;;;;5064559;28;20384;-45
2021/07/02 02:33:31;;;;;;;7.90;2.10;;;19.00;99.90;;;;;;5065295;28;20375;-45
2021/07/02 02:36:10;;;;;;;9.57;2.08;;;18.90;99.90;;;;;;5065592;28;20386;-48
2021/07/02 02:38:48;;;;;;;7.68;1.98;;;18.80;99.90;;;;;;5066648;28;20394;-43
2021/07/02 02:41:26;;;;;;;4.20;1.70;;;18.70;99.90;;;;;;5085644;27;20393;-46
2021/07/02 02:44:05;;;;;;;5.93;2.03;;;18.60;99.90;;;;;;5065308;28;20763;-48
2021/07/02 02:46:43;;;;;;;9.82;2.33;;;18.60;99.90;;;;;;5047022;28;20380;-44
2021/07/02 02:49:21;;;;;;;12.95;2.35;;;18.60;99.90;;;;;;5065972;28;20889;-45
2021/07/02 02:51:59;;;;;;;8.63;2.65;;;18.60;99.90;;;;;;5066523;28;20379;-45
2021/07/02 02:54:37;;;;;;;9.52;2.42;;;18.60;99.90;;;;;;5065616;28;20375;-45
2021/07/02 02:57:15;;;;;;;8.55;2.45;;;18.60;99.90;;;;;;5085863;27;20404;-46
2021/07/02 02:59:58;;;;;;;14.63;2.92;;;18.60;99.90;;;;;;5126830;27;20383;-43
2021/07/02 03:02:38;;;;;;;7.38;2.33;;;18.60;99.90;;;;;;5065105;28;20386;-44
2021/07/02 03:05:18;;;;;;;8.80;2.75;;;18.60;99.90;;;;;;5066885;28;20382;-43
2021/07/02 03:07:57;;;;;;;8.23;2.30;;;18.50;99.90;;;;;;5086155;27;20381;-47
2021/07/02 03:10:35;;;;;;;10.15;2.55;;;18.40;99.90;;;;;;5126749;27;20663;-44
2021/07/02 03:13:14;;;;;;;5.97;1.80;;;18.40;99.90;;;;;;5086124;28;20374;-45
2021/07/02 03:15:52;;;;;;;6.45;1.92;;;18.40;99.90;;;;;;5065469;28;20885;-44
2021/07/02 03:18:30;;;;;;;9.48;2.10;;;18.40;99.90;;;;;;5066775;28;20383;-45
2021/07/02 03:21:09;;;;;;;6.35;2.22;;;18.30;99.90;;;;;;5065215;28;20375;-45
2021/07/02 03:23:47;;;;;;;5.18;1.65;;;18.30;99.90;;;;;;5066374;28;20379;-44
2021/07/02 03:26:25;;;;;;;8.38;2.03;;;18.40;99.90;;;;;;5066296;28;20378;-43
2021/07/02 03:29:05;;;;;;;9.07;1.98;;;18.30;99.90;;;;;;5106413;27;20742;-46
2021/07/02 03:31:43;;;;;;;6.97;1.90;;;18.30;99.90;;;;;;5127466;27;20375;-43
2021/07/02 03:34:21;;;;;;;5.43;1.88;;;18.20;99.90;;;;;;5065077;28;20893;-43
2021/07/02 03:37:01;;;;;;;8.00;1.75;;;18.20;99.90;;;;;;5086952;28;20374;-43
2021/07/02 03:39:41;;;;;;;8.15;2.28;;;17.90;99.90;;;;;;5065660;28;20390;-46
2021/07/02 03:42:19;;;;;;;5.05;1.92;;;17.80;99.90;;;;;;5065396;28;20769;-46
2021/07/02 03:44:57;;;;;;;11.57;3.25;;;17.80;99.90;;;;;;5066388;27;20897;-45
2021/07/02 03:47:35;;;;;;;10.57;2.65;;;17.80;99.90;;;;;;5062648;27;20915;-43
2021/07/02 03:50:15;;;;;;;5.32;2.30;;;17.80;99.90;;;;;;5066983;28;20379;-46
2021/07/02 03:52:53;;;;;;;9.95;2.80;;;17.80;99.90;;;;;;5065862;28;20371;-47
2021/07/02 03:55:30;;;;;;;12.02;1.92;;;17.90;99.90;;;;;;5066293;28;20143;-47
2021/07/02 03:58:08;;;;;;;8.57;2.58;;;17.90;99.90;;;;;;5065645;28;20383;-44
2021/07/02 04:00:45;;;;;;;10.13;2.67;;;18.00;99.90;;;;;;5063926;28;20135;-44
2021/07/02 04:03:23;;;;;;;8.15;2.15;;;17.90;99.90;;;;;;5066361;28;20379;-45
2021/07/02 04:06:00;;;;;;;11.18;3.22;;;17.80;99.90;;;;;;5065961;28;20525;-45
2021/07/02 04:08:38;;;;;;;12.63;2.72;;;17.50;99.90;;;;;;5066254;28;20885;-48
2021/07/02 04:11:16;;;;;;;11.18;3.05;;;17.50;99.90;;;;;;5065665;28;20390;-44
2021/07/02 04:13:53;;;;;;;11.20;3.47;;;17.60;99.90;;;;;;5105755;27;20133;-49
2021/07/02 04:16:30;;;;;;;9.43;2.67;;;17.70;99.90;;;;;;5107410;27;20125;-46
2021/07/02 04:19:07;;;;;;;11.70;3.00;;;17.90;99.90;;;;;;5065306;28;20379;-48
2021/07/02 04:21:45;;;;;;;8.40;3.00;;;18.00;99.90;;;;;;5054903;28;20127;-44
2021/07/02 04:24:22;;;;;;;8.45;2.60;;;18.00;99.90;;;;;;5065241;28;20379;-42
2021/07/02 04:27:00;;;;;;;12.63;2.38;;;18.00;99.90;;;;;;5127694;27;20383;-46
2021/07/02 04:29:39;;;;;;;9.20;2.83;;;17.90;99.90;;;;;;5066431;28;20371;-46
2021/07/02 04:32:17;;;;;;;7.65;3.15;;;17.90;99.90;;;;;;5100875;27;20376;-45
2021/07/02 04:34:55;;;;;;;8.13;3.00;;;18.10;99.90;;;;;;5062700;28;20379;-48
2021/07/02 04:37:33;;;;;;;8.18;3.42;;;18.40;99.90;;;;;;5065214;28;20386;-47
2021/07/02 04:40:11;;;;;;;10.70;3.10;;;19.30;99.90;;;;;;5065606;28;20138;-47
2021/07/02 04:42:48;;;;;;;10.98;3.30;;;20.60;99.90;;;;;;5065410;28;20386;-47
2021/07/02 04:45:25;;;;;;;7.18;2.58;;;20.50;99.90;;;;;;5056581;28;20143;-46
2021/07/02 04:48:03;;;;;;;9.98;2.72;;;19.70;99.90;;;;;;5066360;28;20383;-45
2021/07/02 04:50:41;;;;;;;15.85;3.17;;;19.10;99.90;;;;;;5064953;28;20382;-43
2021/07/02 04:53:20;;;;;;;7.80;2.72;;;18.70;99.90;;;;;;5066209;28;20375;-43
2021/07/02 04:55:57;;;;;;;14.45;4.05;;;18.40;99.90;;;;;;5065050;28;20379;-45
2021/07/02 04:58:36;;;;;;;10.60;2.95;;;18.50;99.90;;;;;;5064021;28;20390;-50
2021/07/02 05:01:16;;;;;;;13.13;3.17;;;19.00;99.90;;;;;;5086188;28;20382;-46
2021/07/02 05:03:54;;;;;;;12.05;3.47;;;19.60;99.90;;;;;;5064845;28;20383;-45
2021/07/02 05:06:35;;;;;;;12.15;3.75;;;20.60;99.90;;;;;;5148297;27;20374;-47
2021/07/02 05:09:12;;;;;;;17.08;3.47;;;22.90;99.90;;;;;;5065635;28;20382;-45
2021/07/02 05:11:50;;;;;;;10.23;2.63;;;24.50;99.90;;;;;;5065233;28;20375;-49
2021/07/02 05:14:28;;;;;;;18.70;2.97;;;25.00;98.40;;;;;;5106734;27;20383;-45
2021/07/02 05:17:06;;;;;;;11.88;2.35;;;25.00;98.00;;;;;;5065172;28;20375;-44
2021/07/02 05:19:45;;;;;;;12.98;3.00;;;25.30;96.40;;;;;;5062293;28;20399;-44
2021/07/02 05:22:24;;;;;;;7.50;2.30;;;25.30;96.80;;;;;;5071692;27;20917;-45
2021/07/02 05:25:02;;;;;;;9.75;2.25;;;25.10;96.70;;;;;;5065802;28;21050;-45
2021/07/02 05:27:40;;;;;;;8.25;2.38;;;25.10;96.80;;;;;;5107037;27;20775;-44
2021/07/02 05:30:18;;;;;;;16.92;3.20;;;25.40;96.60;;;;;;5104090;27;20227;-45
2021/07/02 05:32:57;;;;;;;18.00;2.80;;;26.80;94.80;;;;;;5129892;27;20184;-45
2021/07/02 05:35:34;;;;;;;9.07;2.58;;;27.20;93.80;;;;;;5065042;28;20375;-44
2021/07/02 05:38:13;;;;;;;15.55;2.60;;;27.80;93.50;;;;;;5066322;28;20386;-44
2021/07/02 05:40:54;;;;;;;10.23;2.78;;;27.80;92.70;;;;;;5106459;27;20384;-45
2021/07/02 05:43:32;;;;;;;11.57;3.08;;;26.90;92.70;;;;;;5065470;28;20383;-44
2021/07/02 05:46:10;;;;;;;9.15;1.92;;;24.80;94.50;;;;;;5052717;28;20388;-44
2021/07/02 05:48:48;;;;;;;12.93;2.35;;;25.80;94.90;;;;;;5064893;28;20379;-45
2021/07/02 05:51:26;;;;;;;10.63;2.85;;;25.30;94.90;;;;;;5066161;28;20378;-45
2021/07/02 05:54:05;;;;;;;7.15;2.33;;;26.30;94.30;;;;;;5057371;28;20392;-47
2021/07/02 05:56:43;;;;;;;6.50;1.90;;;26.80;93.40;;;;;;5096794;27;20407;-48
2021/07/02 05:59:21;;;;;;;9.32;2.13;;;28.20;92.10;;;;;;5053347;27;20380;-44
2021/07/02 06:01:59;;;;;;;14.27;2.78;;;29.10;91.00;;;;;;5060532;28;20395;-47
2021/07/02 06:04:36;;;;;;;5.97;2.00;;;29.50;90.10;;;;;;5077525;27;20141;-44
2021/07/02 06:07:12;;;;;;;12.55;2.60;;;29.90;88.40;;;;;;5051508;28;20597;-44
2021/07/02 06:09:50;;;;;;;12.25;2.55;;;29.80;89.30;;;;;;5069107;27;20749;-46
2021/07/02 06:12:30;;;;;;;12.82;2.72;;;30.10;87.50;;;;;;5044779;27;20911;-44
2021/07/02 06:15:07;;;;;;;20.80;2.65;;;30.20;86.90;;;;;;5042576;28;20155;-45
2021/07/02 06:17:47;;;;;;;16.88;3.20;;;30.40;86.40;;;;;;5101033;27;20385;-45
2021/07/02 06:20:26;;;;;;;14.20;2.88;;;28.90;89.30;;;;;;5065600;28;20379;-47
2021/07/02 06:23:04;;;;;;;14.48;2.60;;;29.80;88.40;;;;;;5065640;28;20379;-44
2021/07/02 06:25:41;;;;;;;9.35;2.40;;;30.50;87.10;;;;;;5037035;28;20790;-48
2021/07/02 06:28:18;;;;;;;11.10;2.17;;;30.00;87.00;;;;;;5053633;28;20143;-49
2021/07/02 06:30:57;;;;;;;8.15;2.33;;;26.90;89.90;;;;;;5090118;27;20388;-43
2021/07/02 06:33:34;;;;;;;14.77;2.47;;;24.00;94.20;;;;;;5041138;28;20388;-43
2021/07/02 06:36:12;;;;;;;10.52;2.78;;;23.80;95.80;;;;;;5043478;28;20376;-47
2021/07/02 06:38:49;;;;;;;10.88;2.83;;;23.90;96.60;;;;;;5053665;27;20289;-44
2021/07/02 06:41:26;;;;;;;10.65;2.50;;;24.20;96.40;;;;;;5046170;28;20142;-43
2021/07/02 06:44:05;;;;;;;10.05;2.65;;;25.10;95.50;;;;;;5107208;27;20878;-49
2021/07/02 06:46:42;;;;;;;12.25;2.50;;;25.60;94.70;;;;;;5045378;28;20901;-45
2021/07/02 06:49:19;;;;;;;9.57;2.42;;;26.10;93.70;;;;;;5066647;28;20632;-48
2021/07/02 06:51:55;;;;;;;8.65;2.28;;;25.30;94.40;;;;;;5065328;28;20134;-45
2021/07/02 06:54:34;;;;;;;8.82;2.55;;;24.90;94.90;;;;;;5086048;27;20374;-46
2021/07/02 06:57:14;;;;;;;6.60;2.22;;;25.20;95.00;;;;;;5105627;27;20387;-47
2021/07/02 06:59:52;;;;;;;8.05;2.30;;;26.00;94.40;;;;;;5084784;27;20395;-48
2021/07/02 07:02:30;;;;;;;12.45;2.42;;;26.80;92.70;;;;;;5102425;27;20377;-47
2021/07/02 07:05:08;;;;;;;7.10;2.22;;;26.90;93.10;;;;;;5061106;28;20387;-44
2021/07/02 07:07:48;;;;;;;9.52;2.20;;;27.90;92.10;;;;;;5045431;28;20376;-48
2021/07/02 07:10:26;;;;;;;13.07;2.90;;;28.80;91.30;;;;;;5061263;28;20787;-48
2021/07/02 07:13:06;;;;;;;15.60;2.70;;;29.40;90.40;;;;;;5065312;28;20769;-47
2021/07/02 07:15:45;;;;;;;14.63;2.80;;;29.90;89.70;;;;;;5066329;28;20394;-45
2021/07/02 07:18:23;;;;;;;12.60;2.47;;;30.60;87.80;;;;;;5126085;27;20595;-48
2021/07/02 07:21:01;;;;;;;14.75;2.63;;;31.70;86.10;;;;;;5003180;28;20387;-45
2021/07/02 07:23:40;;;;;;;11.38;2.20;;;32.60;83.50;;;;;;5046345;28;20733;-45
2021/07/02 07:26:18;;;;;;;9.63;2.30;;;32.80;82.10;;;;;;5065715;28;20741;-45
2021/07/02 07:28:57;;;;;;;11.20;2.60;;;33.60;81.00;;;;;;5064287;28;20391;-45
2021/07/02 07:31:36;;;;;;;12.15;2.30;;;34.40;78.20;;;;;;5064089;28;20419;-46
2021/07/02 07:34:23;;;;;;;9.10;2.38;;;35.30;75.90;;;;;;5066151;28;20375;-46
2021/07/02 07:37:05;;;;;;;10.88;1.83;;;36.10;74.90;;;;;;5057251;28;20711;-45
2021/07/02 07:39:43;;;;;;;6.78;1.70;;;36.60;73.50;;;;;;5085764;27;20377;-45
2021/07/02 07:42:20;;;;;;;9.23;2.05;;;37.00;72.80;;;;;;5065490;28;20383;-46
2021/07/02 07:44:58;;;;;;;9.00;2.35;;;37.20;71.70;;;;;;5049336;28;20392;-45
2021/07/02 07:47:35;;;;;;;12.52;2.50;;;37.20;71.30;;;;;;5107038;27;20156;-45
2021/07/02 07:50:19;;;;;;;9.93;2.25;;;36.90;70.80;;;;;;5065267;28;20521;-49
2021/07/02 07:52:59;;;;;;;9.82;2.45;;;36.80;70.90;;;;;;5066146;28;20697;-47
2021/07/02 07:55:37;;;;;;;9.75;2.13;;;37.30;70.40;;;;;;5066019;28;20773;-48
2021/07/02 07:58:14;;;;;;;6.43;1.80;;;37.80;69.20;;;;;;5063792;28;21102;-44
2021/07/02 08:00:52;;;;;;;5.90;2.10;;;37.80;69.00;;;;;;5066275;28;20368;-51
2021/07/02 08:03:30;;;;;;;6.25;2.20;;;38.10;68.60;;;;;;5105720;27;20319;-46
2021/07/02 08:06:07;;;;;;;9.30;2.22;;;38.30;68.40;;;;;;5065462;28;20379;-46
2021/07/02 08:08:46;;;;;;;8.82;2.00;;;38.60;68.30;;;;;;5066064;28;20383;-47
2021/07/02 08:11:24;;;;;;;17.55;2.42;;;39.40;67.00;;;;;;5126582;27;20128;-48
2021/07/02 08:14:03;;;;;;;8.65;1.83;;;39.00;66.90;;;;;;5066491;28;20911;-48
2021/07/02 08:16:41;;;;;;;5.28;1.70;;;39.90;65.40;;;;;;5065001;28;20383;-48
2021/07/02 08:19:18;;;;;;;7.43;2.35;;;39.50;65.90;;;;;;5106996;27;20387;-47
2021/07/02 08:21:57;;;;;;;10.45;2.17;;;39.40;65.90;;;;;;5065840;28;20397;-50
2021/07/02 08:24:36;;;;;;;6.53;1.67;;;39.40;65.50;;;;;;5087843;27;20373;-50
2021/07/02 08:27:13;;;;;;;10.55;2.25;;;39.40;65.70;;;;;;5094025;27;20515;-49
2021/07/02 08:29:52;;;;;;;7.55;2.20;;;39.60;65.10;;;;;;5044243;27;20397;-47
2021/07/02 08:32:32;;;;;;;5.88;1.88;;;39.10;66.00;;;;;;5053042;28;20419;-46
2021/07/02 08:35:11;;;;;;;5.68;1.95;;;39.50;65.10;;;;;;5047196;28;20388;-48
2021/07/02 08:37:51;;;;;;;7.15;1.90;;;39.40;66.30;;;;;;5049809;28;20597;-45
2021/07/02 08:40:29;;;;;;;15.48;2.67;;;39.50;64.70;;;;;;5090956;27;20382;-50
2021/07/02 08:43:07;;;;;;;7.72;1.67;;;40.80;64.40;;;;;;5049849;28;20751;-49
2021/07/02 08:45:46;;;;;;;7.03;1.65;;;41.10;63.70;;;;;;5051149;28;20930;-50
2021/07/02 08:48:25;;;;;;;5.85;1.98;;;41.30;62.80;;;;;;5046290;28;20380;-46
2021/07/02 08:51:04;;;;;;;6.43;1.67;;;41.90;62.50;;;;;;5050985;28;20373;-52
2021/07/02 08:53:43;;;;;;;7.32;1.92;;;42.30;61.80;;;;;;5107253;27;20711;-52
2021/07/02 08:56:22;;;;;;;13.00;1.92;;;42.30;61.40;;;;;;5040507;28;20392;-46
2021/07/02 08:58:59;;;;;;;6.15;1.92;;;41.80;61.40;;;;;;5166500;27;20392;-47
2021/07/02 09:01:41;;;;;;;7.30;1.90;;;41.60;62.30;;;;;;5042781;28;20393;-46
2021/07/02 09:04:20;;;;;;;6.85;2.22;;;41.80;61.70;;;;;;5058888;28;20875;-46
2021/07/02 09:07:15;;;;;;;13.07;2.40;;;42.00;61.50;;;;;;5045251;28;20376;-46
2021/07/02 09:09:55;;;;;;;5.38;1.77;;;42.70;61.30;;;;;;5046282;28;20384;-45
2021/07/02 09:12:37;;;;;;;13.05;2.33;;;42.00;60.90;;;;;;5086516;27;20365;-44
2021/07/02 09:15:14;;;;;;;10.32;2.63;;;41.70;61.10;;;;;;5050695;28;20383;-48
2021/07/02 09:17:51;;;;;;;10.18;2.20;;;41.60;61.80;;;;;;5049236;28;20142;-49
2021/07/02 09:20:36;;;;;;;11.05;2.35;;;41.40;61.40;;;;;;5042734;28;20498;-48
2021/07/02 09:23:15;;;;;;;8.77;1.90;;;41.70;61.10;;;;;;5053305;28;20914;-49
2021/07/02 09:25:54;;;;;;;6.40;1.63;;;42.60;60.70;;;;;;5084036;27;20756;-49
2021/07/02 09:28:32;;;;;;;6.38;1.90;;;43.00;59.70;;;;;;5052043;28;20373;-50
2021/07/02 09:31:10;;;;;;;9.23;2.00;;;43.60;59.70;;;;;;5049923;28;20694;-47
2021/07/02 09:33:55;;;;;;;8.05;2.25;;;43.70;59.40;;;;;;5045374;28;20407;-48
2021/07/02 09:36:33;;;;;;;11.38;2.13;;;43.70;59.70;;;;;;5065479;28;20393;-49
2021/07/02 09:39:30;;;;;;;11.40;2.20;;;44.60;58.70;;;;;;5049585;28;20654;-52
2021/07/02 09:42:30;;;;;;;7.53;1.80;;;44.90;57.70;;;;;;5127786;27;20414;-51
2021/07/02 09:45:08;;;;;;;9.60;2.33;;;44.90;57.20;;;;;;5097238;27;20372;-50
2021/07/02 09:47:46;;;;;;;8.20;2.00;;;45.20;57.20;;;;;;5099587;27;20448;-45
2021/07/02 09:50:52;;;;;;;8.05;1.88;;;44.70;57.50;;;;;;5080938;28;20036;-45
2021/07/02 09:54:06;;;;;;;6.22;1.77;;;45.20;57.40;;;;;;5069601;28;20372;-49
2021/07/02 09:57:17;;;;;;;9.00;2.15;;;44.30;57.20;;;;;;5065907;28;20506;-45
2021/07/02 10:00:22;;;;;;;9.10;2.13;;;43.80;58.10;;;;;;5064140;28;20033;-48
2021/07/02 10:03:29;;;;;;;8.18;2.00;;;44.10;58.40;;;;;;5064842;28;20353;-45
2021/07/02 10:06:36;;;;;;;15.10;2.00;;;43.10;58.50;;;;;;5066392;28;20033;-44
2021/07/02 10:09:41;;;;;;;7.22;2.40;;;44.00;58.20;;;;;;5064633;28;20059;-48
2021/07/02 10:12:46;;;;;;;7.30;2.00;;;44.70;57.60;;;;;;5065169;28;20041;-49
2021/07/02 10:15:51;;;;;;;9.13;2.65;;;45.70;56.00;;;;;;5046068;28;20045;-46
2021/07/02 10:18:58;;;;;;;6.72;2.08;;;43.10;55.70;;;;;;5064646;28;20048;-45
2021/07/02 10:22:02;;;;;;;6.30;1.80;;;39.90;59.40;;;;;;5064529;28;20028;-45
2021/07/02 10:25:16;;;;;;;7.43;1.85;;;39.80;58.40;;;;;;5063949;28;20041;-47
2021/07/02 10:28:22;;;;;;;9.20;2.10;;;40.60;59.90;;;;;;5062653;28;20045;-48
2021/07/02 10:31:26;;;;;;;6.97;1.85;;;41.70;59.10;;;;;;5061750;28;20037;-46
2021/07/02 10:34:31;;;;;;;9.30;2.55;;;42.50;58.40;;;;;;5064691;28;20036;-48
2021/07/02 10:37:36;;;;;;;12.85;2.38;;;41.60;58.80;;;;;;5065759;28;20491;-44
2021/07/02 10:40:42;;;;;;;5.72;1.90;;;41.60;59.30;;;;;;5063995;28;20060;-49
2021/07/02 10:44:11;;;;;;;5.65;2.00;;;41.50;58.60;;;;;;5063262;28;20499;-50
2021/07/02 10:47:16;;;;;;;6.38;1.80;;;41.90;59.30;;;;;;5060587;28;20041;-48
2021/07/02 10:50:41;;;;;;;10.75;2.30;;;43.10;58.20;;;;;;5062889;28;20036;-45
2021/07/02 10:53:46;;;;;;;6.80;2.00;;;42.80;58.20;;;;;;5063983;28;20051;-49
2021/07/02 10:56:49;;;;;;;7.57;2.10;;;43.80;56.80;;;;;;5064215;28;20041;-46
2021/07/02 10:59:53;;;;;;;18.83;4.35;;;43.90;57.40;;;;;;5051293;28;20041;-50
2021/07/02 11:03:18;;;;;;;17.15;2.30;;;44.10;57.10;;;;;;5049121;28;20056;-45
2021/07/02 11:06:41;;;;;;;6.80;2.45;;;42.20;57.00;;;;;;5050698;28;20051;-48
2021/07/02 11:09:50;;;;;;;15.00;2.42;;;38.90;59.00;;;;;;5050500;28;20040;-46
2021/07/02 11:13:00;;;;;;;12.80;2.25;;;37.40;63.40;;;;;;5051946;28;20044;-50
2021/07/02 11:16:07;;;;;;;7.78;2.40;;;37.70;62.90;;;;;;5050911;28;20045;-44
2021/07/02 11:19:25;;;;;;;7.90;2.00;;;38.90;61.70;;;;;;5051333;28;20037;-50
2021/07/02 11:22:31;;;;;;;8.68;2.88;;;40.70;59.90;;;;;;5052041;28;20044;-46
2021/07/02 11:28:58;;;;;;;9.15;2.28;;;42.10;58.80;;;;;;5050169;28;20033;-45
2021/07/02 11:32:02;;;;;;;6.85;2.85;;;42.50;58.40;;;;;;5050529;28;20029;-46
2021/07/02 11:35:18;;;;;;;8.98;2.40;;;42.20;57.80;;;;;;5050383;28;20037;-48
2021/07/02 11:38:24;;;;;;;7.20;2.03;;;42.00;58.60;;;;;;5049692;28;20040;-45
2021/07/02 11:41:31;;;;;;;6.65;2.47;;;42.00;57.80;;;;;;5049671;28;20045;-45
2021/07/02 11:44:35;;;;;;;7.63;2.10;;;42.20;57.90;;;;;;5046108;28;20392;-44
2021/07/02 11:47:39;;;;;;;14.98;2.30;;;42.50;58.10;;;;;;5054592;28;20045;-49
2021/07/02 11:50:44;;;;;;;7.07;2.83;;;41.60;58.70;;;;;;5046555;28;20039;-45
2021/07/02 11:54:04;;;;;;;6.88;2.20;;;40.00;58.80;;;;;;5049016;28;20029;-48
2021/07/02 11:57:19;;;;;;;8.48;2.25;;;40.20;59.50;;;;;;5047408;28;20515;-45
2021/07/02 12:00:34;;;;;;;8.15;2.30;;;40.60;59.90;;;;;;5046191;28;20036;-46
2021/07/02 12:03:48;;;;;;;7.68;2.25;;;40.40;60.20;;;;;;5031756;28;20393;-48
2021/07/02 12:06:53;;;;;;;9.90;2.75;;;40.30;60.20;;;;;;5047256;28;20040;-46
2021/07/02 12:09:57;;;;;;;10.45;2.58;;;39.60;60.50;;;;;;5045635;28;20045;-47
2021/07/02 12:13:06;;;;;;;4.40;2.05;;;34.50;65.00;;;;;;5047829;28;20517;-46
2021/07/02 12:16:14;;;;;;;10.20;2.28;;;35.60;65.00;;;;;;5048221;28;20055;-46
2021/07/02 12:19:23;;;;;;;7.15;2.10;;;36.80;64.70;;;;;;5049213;28;20032;-46
2021/07/02 12:22:27;;;;;;;10.38;2.53;;;37.00;64.30;;;;;;5047684;28;20036;-45
2021/07/02 12:25:32;;;;;;;10.85;2.85;;;37.80;64.00;;;;;;5029642;28;20043;-46
2021/07/02 12:28:58;;;;;;;17.95;2.83;;;37.90;63.70;;;;;;5049092;28;20051;-45
2021/07/02 12:32:10;;;;;;;8.45;2.83;;;38.30;63.20;;;;;;5048624;28;20059;-48
2021/07/02 12:35:15;;;;;;;6.85;2.42;;;37.40;63.60;;;;;;5049529;28;20044;-46
2021/07/02 12:38:19;;;;;;;7.72;2.40;;;36.90;63.90;;;;;;5035261;28;20040;-45
2021/07/02 12:41:23;;;;;;;9.57;2.85;;;35.90;64.90;;;;;;5046237;28;20045;-45
2021/07/02 12:44:29;;;;;;;8.77;2.83;;;36.40;64.90;;;;;;5048321;28;20403;-46
2021/07/02 12:47:35;;;;;;;7.45;2.20;;;37.20;63.50;;;;;;5044791;28;20538;-46
2021/07/02 12:50:39;;;;;;;7.65;2.03;;;37.80;63.40;;;;;;5042445;28;20056;-46
2021/07/02 12:57:06;;;;;;;8.00;2.50;;;36.90;62.20;;;;;;5045884;28;20036;-45
2021/07/02 13:00:32;;;;;;;10.27;2.38;;;32.90;67.80;;;;;;5046469;28;20112;-47
2021/07/02 13:03:36;;;;;;;9.32;2.20;;;33.70;68.70;;;;;;5046069;28;20044;-47
2021/07/02 13:06:40;;;;;;;10.35;2.50;;;32.90;68.40;;;;;;5047733;28;20041;-45
2021/07/02 13:09:44;;;;;;;6.15;2.67;;;33.20;68.60;;;;;;5048700;28;20048;-45
2021/07/02 13:13:04;;;;;;;9.85;2.80;;;32.60;68.70;;;;;;5043660;28;20037;-46
2021/07/02 13:16:09;;;;;;;7.63;2.10;;;32.90;69.40;;;;;;5045386;28;20738;-44
2021/07/02 13:19:30;;;;;;;8.95;2.80;;;34.30;68.70;;;;;;5048477;28;20392;-46
2021/07/02 13:22:35;;;;;;;13.52;2.72;;;35.20;66.90;;;;;;5047060;28;20048;-44
2021/07/02 13:25:39;;;;;;;8.38;2.40;;;34.80;66.90;;;;;;5045621;28;20503;-45
2021/07/02 13:28:45;;;;;;;9.23;2.75;;;35.70;65.40;;;;;;5045649;28;20060;-47
2021/07/02 13:31:54;;;;;;;11.10;2.40;;;36.20;64.90;;;;;;5046739;28;20029;-45
2021/07/02 13:34:57;;;;;;;6.97;2.35;;;36.30;64.20;;;;;;5046827;28;20055;-45
2021/07/02 13:38:07;;;;;;;6.70;2.47;;;36.20;64.40;;;;;;5048136;28;20491;-46
2021/07/02 13:41:20;;;;;;;9.52;2.83;;;35.90;64.00;;;;;;5043200;28;20394;-47
2021/07/02 13:44:32;;;;;;;10.57;2.13;;;35.70;63.90;;;;;;5047361;28;20043;-45
2021/07/02 13:47:37;;;;;;;9.70;2.47;;;35.20;65.70;;;;;;5046625;28;20056;-45
2021/07/02 13:50:42;;;;;;;8.65;2.55;;;35.10;66.80;;;;;;5047021;28;20565;-45
2021/07/02 13:53:46;;;;;;;7.43;2.53;;;35.60;65.40;;;;;;5046181;28;20052;-45
2021/07/02 13:56:51;;;;;;;5.30;2.33;;;35.60;65.00;;;;;;5045432;28;20519;-45
2021/07/02 13:59:57;;;;;;;11.30;2.78;;;35.50;65.40;;;;;;5046941;28;20048;-49
2021/07/02 14:03:01;;;;;;;8.65;2.72;;;35.50;64.80;;;;;;5042990;28;20044;-45
2021/07/02 14:06:05;;;;;;;10.10;2.55;;;35.80;65.60;;;;;;5043687;28;20048;-45
2021/07/02 14:09:10;;;;;;;5.72;2.10;;;35.20;65.40;;;;;;5044344;28;20108;-48
2021/07/02 14:12:16;;;;;;;9.50;2.60;;;34.50;66.50;;;;;;5037217;28;20030;-48
2021/07/02 14:15:21;;;;;;;10.85;3.17;;;34.00;67.70;;;;;;5047006;28;20508;-45
2021/07/02 14:18:25;;;;;;;11.27;2.83;;;34.10;68.30;;;;;;5047062;28;20048;-45
2021/07/02 14:21:29;;;;;;;9.07;3.00;;;33.70;66.10;;;;;;5048420;28;20403;-46
2021/07/02 14:24:33;;;;;;;8.05;2.05;;;33.40;68.40;;;;;;5046825;28;20407;-48
2021/07/02 14:27:37;;;;;;;10.98;2.10;;;33.80;68.20;;;;;;5047427;28;20044;-49
2021/07/02 14:30:41;;;;;;;8.27;2.10;;;34.00;68.00;;;;;;5048557;28;20040;-47
2021/07/02 14:33:45;;;;;;;9.45;2.40;;;33.20;68.70;;;;;;5049958;28;20407;-47